Time;durP1;ratioP1;P1;durP2;ratioP2;P2;SDS_P1;SDS_P2;PMS_P1;PMS_P2;Temp;Humidity;BMP_temperature;BMP_pressure;BME280_temperature;BME280_humidity;BME280_pressure;Samples;Min_cycle;Max_cycle;Signal;HPM_P1;HPM_P2
2021/09/01 00:01:04;;;;;;;1.13;0.80;;;;;;;14.45;71.84;99738.81;5114854;27;41773;-80
2021/09/01 00:03:32;;;;;;;1.90;1.13;;;;;;;14.32;71.85;99721.88;5120779;27;42823;-81
2021/09/01 00:06:05;;;;;;;2.13;1.77;;;;;;;14.12;71.99;99688.50;5116764;27;39746;-81
2021/09/01 00:08:32;;;;;;;1.13;1.03;;;;;;;14.39;71.77;99739.16;5140210;27;41964;-81
2021/09/01 00:11:00;;;;;;;1.30;1.20;;;;;;;14.32;71.86;99732.53;5107936;27;41716;-81
2021/09/01 00:13:27;;;;;;;1.20;1.03;;;;;;;14.35;71.83;99748.31;5106799;28;41146;-81
2021/09/01 00:15:55;;;;;;;0.83;0.83;;;;;;;14.26;71.92;99727.59;5104021;27;40015;-80
2021/09/01 00:18:24;;;;;;;1.23;1.13;;;;;;;14.32;71.95;99743.19;5117355;27;40733;-80
2021/09/01 00:20:51;;;;;;;2.17;1.20;;;;;;;14.28;71.85;99739.00;5108529;28;43058;-80
2021/09/01 00:23:19;;;;;;;0.93;0.93;;;;;;;14.19;72.11;99739.59;5092866;27;41087;-81
2021/09/01 00:25:46;;;;;;;1.30;1.20;;;;;;;14.21;72.00;99735.03;5101481;28;39157;-81
2021/09/01 00:28:14;;;;;;;1.60;1.50;;;;;;;14.24;72.27;99748.13;5103951;27;40636;-81
2021/09/01 00:30:41;;;;;;;1.47;1.30;;;;;;;14.22;72.58;99750.03;5106032;27;43379;-81
2021/09/01 00:33:09;;;;;;;2.73;1.83;;;;;;;14.18;72.56;99745.88;5090389;28;42221;-81
2021/09/01 00:35:37;;;;;;;1.80;1.50;;;;;;;14.16;72.58;99742.44;5101604;27;38870;-81
2021/09/01 00:38:05;;;;;;;1.33;1.03;;;;;;;14.10;72.50;99737.50;5118626;27;42742;-81
2021/09/01 00:40:32;;;;;;;1.10;1.00;;;;;;;14.07;72.44;99733.22;5099306;28;42972;-80
2021/09/01 00:43:00;;;;;;;1.00;1.00;;;;;;;14.14;72.65;99747.00;5113405;27;42170;-80
2021/09/01 00:45:27;;;;;;;2.00;1.30;;;;;;;14.09;72.25;99741.13;5102358;27;39630;-81
2021/09/01 00:47:55;;;;;;;1.87;1.40;;;;;;;13.99;72.55;99739.03;5098994;28;40559;-81
2021/09/01 00:50:23;;;;;;;1.57;1.47;;;;;;;13.88;72.41;99722.00;5124357;27;42904;-80
2021/09/01 00:52:53;;;;;;;1.10;1.00;;;;;;;13.76;72.46;99712.13;5091026;28;41409;-81
2021/09/01 00:55:21;;;;;;;0.80;0.80;;;;;;;13.84;72.41;99726.69;5123250;27;40082;-81
2021/09/01 00:57:50;;;;;;;1.03;0.93;;;;;;;13.81;72.81;99724.22;5103149;27;40623;-81
2021/09/01 01:00:27;;;;;;;1.40;1.00;;;;;;;13.90;72.99;99746.72;5117945;27;42624;-81
2021/09/01 01:03:14;;;;;;;2.13;1.70;;;;;;;13.87;72.80;99745.09;5094054;28;41129;-80
2021/09/01 01:05:41;;;;;;;1.47;1.30;;;;;;;13.68;72.81;99717.91;5094301;28;41123;-80
2021/09/01 01:08:10;;;;;;;2.00;1.27;;;;;;;13.71;72.96;99731.06;5114252;27;41920;-80
2021/09/01 01:10:39;;;;;;;2.40;1.20;;;;;;;13.75;73.00;99751.19;5127300;27;43684;-82
2021/09/01 01:13:07;;;;;;;1.47;1.00;;;;;;;13.77;73.08;99756.44;5105903;27;43934;-83
2021/09/01 01:15:38;;;;;;;1.40;1.30;;;;;;;13.74;72.91;99753.94;5106058;28;38939;-81
2021/09/01 01:18:07;;;;;;;1.03;1.00;;;;;;;13.70;72.88;99750.63;5104774;27;41980;-80
2021/09/01 01:20:35;;;;;;;1.13;1.00;;;;;;;13.59;72.97;99747.78;5097399;28;42149;-80
2021/09/01 01:23:03;;;;;;;1.60;1.27;;;;;;;13.54;73.01;99741.84;5129560;27;41202;-82
2021/09/01 01:25:35;;;;;;;0.80;0.80;;;;;;;13.53;73.04;99737.47;5119292;27;40955;-81
2021/09/01 01:28:03;;;;;;;1.60;1.10;;;;;;;13.60;72.98;99757.44;5096865;28;41169;-80
2021/09/01 01:30:31;;;;;;;1.20;1.10;;;;;;;13.57;73.00;99752.31;5076396;28;42935;-80
2021/09/01 01:32:59;;;;;;;1.13;1.03;;;;;;;13.46;72.81;99736.16;5109127;28;41705;-80
2021/09/01 01:35:29;;;;;;;1.53;1.33;;;;;;;13.54;73.31;99760.50;5123103;27;40922;-81
2021/09/01 01:37:58;;;;;;;1.73;0.93;;;;;;;13.39;73.23;99740.09;5120901;27;42017;-80
2021/09/01 01:40:27;;;;;;;0.90;0.90;;;;;;;13.44;73.25;99754.00;5099812;27;41865;-80
2021/09/01 01:42:56;;;;;;;1.30;1.20;;;;;;;13.46;73.19;99773.41;5123920;27;42533;-79
2021/09/01 01:45:31;;;;;;;1.43;1.17;;;;;;;13.28;72.87;99749.59;5117603;27;41674;-81
2021/09/01 01:47:59;;;;;;;0.90;0.90;;;;;;;13.30;73.27;99760.16;5114813;27;42707;-79
2021/09/01 01:50:26;;;;;;;1.17;1.07;;;;;;;13.37;73.14;99771.28;5122938;27;41780;-80
2021/09/01 01:52:54;;;;;;;0.80;0.80;;;;;;;13.26;73.01;99766.59;5089935;28;41178;-79
2021/09/01 01:55:22;;;;;;;1.20;1.10;;;;;;;13.25;73.11;99768.38;5122994;27;41706;-80
2021/09/01 01:57:50;;;;;;;1.23;1.10;;;;;;;13.20;72.92;99762.50;5101842;27;40741;-81
2021/09/01 02:00:18;;;;;;;1.33;1.13;;;;;;;13.13;72.88;99765.56;5099023;28;41959;-80
2021/09/01 02:02:46;;;;;;;1.37;1.13;;;;;;;13.20;72.79;99783.78;5126032;27;42441;-80
2021/09/01 02:05:14;;;;;;;1.37;1.10;;;;;;;13.15;72.98;99784.97;5096967;27;38927;-81
2021/09/01 02:07:41;;;;;;;1.23;1.13;;;;;;;13.13;73.06;99785.03;5117420;27;42692;-81
2021/09/01 02:10:11;;;;;;;1.47;1.37;;;;;;;13.12;73.04;99793.09;5120653;27;42949;-81
2021/09/01 02:12:40;;;;;;;1.10;1.00;;;;;;;12.90;73.16;99758.91;5092913;28;41549;-81
2021/09/01 02:15:09;;;;;;;0.60;0.60;;;;;;;13.08;72.89;99792.44;5075438;28;38420;-80
2021/09/01 02:17:39;;;;;;;1.40;1.30;;;;;;;13.05;72.84;99795.28;5079634;28;40432;-81
2021/09/01 02:20:09;;;;;;;1.60;1.50;;;;;;;13.01;73.25;99783.09;5084120;28;41609;-83
2021/09/01 02:22:37;;;;;;;1.20;1.10;;;;;;;12.92;73.27;99773.00;5099588;27;41052;-81
2021/09/01 02:25:06;;;;;;;1.20;1.10;;;;;;;12.97;73.35;99784.22;5097787;27;40156;-80
2021/09/01 02:27:34;;;;;;;0.77;0.77;;;;;;;12.90;73.41;99769.56;5128887;27;42499;-81
2021/09/01 02:30:02;;;;;;;1.43;1.00;;;;;;;12.92;73.61;99773.00;5102818;27;42658;-80
2021/09/01 02:32:31;;;;;;;0.90;0.87;;;;;;;12.85;73.56;99766.31;5097298;28;41253;-80
2021/09/01 02:35:00;;;;;;;1.17;1.07;;;;;;;12.79;73.48;99762.19;5112087;27;38895;-80
2021/09/01 02:37:28;;;;;;;1.47;1.20;;;;;;;12.91;73.45;99779.25;5100188;27;40631;-80
2021/09/01 02:39:55;;;;;;;1.13;0.93;;;;;;;12.84;74.15;99765.47;5102092;28;42028;-80
2021/09/01 02:42:23;;;;;;;1.93;1.83;;;;;;;12.81;73.91;99764.78;5102710;27;41260;-79
2021/09/01 02:44:51;;;;;;;1.17;1.07;;;;;;;12.89;74.02;99778.47;5129126;27;40765;-81
2021/09/01 02:47:18;;;;;;;1.43;1.00;;;;;;;12.82;74.03;99767.34;5124117;27;40725;-82
2021/09/01 02:49:46;;;;;;;1.47;1.37;;;;;;;12.82;73.94;99763.84;5100851;27;42246;-80
2021/09/01 02:52:15;;;;;;;1.80;1.20;;;;;;;12.75;74.04;99751.81;5099119;28;41129;-82
2021/09/01 02:54:42;;;;;;;0.90;0.90;;;;;;;12.84;73.91;99761.94;5109021;27;39065;-80
2021/09/01 02:57:09;;;;;;;2.10;1.13;;;;;;;12.73;74.27;99759.06;5095400;27;41759;-80
2021/09/01 02:59:37;;;;;;;1.13;1.03;;;;;;;12.81;74.02;99770.94;5104806;28;42151;-82
2021/09/01 03:02:04;;;;;;;1.23;1.13;;;;;;;12.80;74.34;99768.38;5120552;27;41439;-81
2021/09/01 03:04:32;;;;;;;1.30;1.20;;;;;;;12.75;74.09;99775.75;5096461;28;38611;-80
2021/09/01 03:06:59;;;;;;;1.07;1.03;;;;;;;12.72;74.26;99770.63;5127828;27;42059;-81
2021/09/01 03:09:28;;;;;;;1.90;1.30;;;;;;;12.65;74.36;99769.22;5100213;27;42091;-80
2021/09/01 03:11:55;;;;;;;1.13;1.07;;;;;;;12.75;74.00;99786.38;5116464;27;42582;-82
2021/09/01 03:14:23;;;;;;;0.80;0.80;;;;;;;12.71;74.55;99790.16;5108211;27;38811;-81
2021/09/01 03:16:50;;;;;;;1.67;1.20;;;;;;;12.51;74.56;99757.56;5113244;27;40778;-80
2021/09/01 03:19:18;;;;;;;1.87;1.73;;;;;;;12.70;74.36;99788.44;5106927;28;42952;-81
2021/09/01 03:21:46;;;;;;;1.10;1.00;;;;;;;12.67;74.34;99784.16;5103520;27;42147;-80
2021/09/01 03:24:13;;;;;;;1.50;1.40;;;;;;;12.33;74.60;99726.75;5102052;28;39041;-81
2021/09/01 03:26:42;;;;;;;0.83;0.83;;;;;;;12.59;74.25;99773.97;5111813;27;40678;-81
2021/09/01 03:29:10;;;;;;;1.60;1.07;;;;;;;12.65;74.42;99793.16;5111751;28;42944;-81
2021/09/01 03:31:38;;;;;;;1.30;0.87;;;;;;;12.40;74.33;99754.66;5090986;28;41420;-82
2021/09/01 03:34:06;;;;;;;1.73;1.53;;;;;;;12.63;74.26;99800.34;5097991;27;40735;-81
2021/09/01 03:36:34;;;;;;;0.77;0.77;;;;;;;12.55;74.36;99788.38;5099923;28;40895;-80
2021/09/01 03:39:01;;;;;;;1.47;1.20;;;;;;;12.43;74.55;99769.59;5131205;27;41666;-80
2021/09/01 03:41:29;;;;;;;2.30;1.33;;;;;;;12.51;74.55;99789.47;5121120;27;42420;-80
2021/09/01 03:43:58;;;;;;;1.87;1.13;;;;;;;12.61;74.44;99794.28;5100649;28;39099;-79
2021/09/01 03:46:26;;;;;;;1.30;1.20;;;;;;;12.57;74.71;99797.09;5107629;27;41697;-79
2021/09/01 03:48:53;;;;;;;1.03;0.97;;;;;;;12.54;74.48;99789.31;5092624;28;42987;-80
2021/09/01 03:51:21;;;;;;;1.37;1.27;;;;;;;12.57;74.60;99802.44;5107195;28;41393;-81
2021/09/01 03:53:49;;;;;;;1.33;0.90;;;;;;;12.57;74.45;99805.09;5121843;27;38720;-81
2021/09/01 03:56:16;;;;;;;1.00;1.00;;;;;;;12.56;74.66;99808.69;5100972;28;40772;-81
2021/09/01 03:58:45;;;;;;;1.27;1.17;;;;;;;12.44;74.58;99793.41;5128540;27;42775;-81
2021/09/01 04:01:14;;;;;;;0.67;0.67;;;;;;;12.47;74.60;99797.72;5116224;27;42541;-80
2021/09/01 04:03:42;;;;;;;1.03;0.87;;;;;;;12.56;75.14;99802.50;5106575;28;40975;-82
2021/09/01 04:06:10;;;;;;;1.27;1.07;;;;;;;12.44;74.83;99781.94;5106550;27;41045;-82
2021/09/01 04:08:38;;;;;;;1.47;1.37;;;;;;;12.63;74.89;99816.28;5099021;28;41760;-80
2021/09/01 04:11:06;;;;;;;1.10;1.00;;;;;;;12.69;74.92;99814.16;5112036;27;40941;-81
2021/09/01 04:13:34;;;;;;;1.03;0.93;;;;;;;12.74;74.76;99809.44;5123877;27;40688;-80
2021/09/01 04:16:02;;;;;;;1.47;1.13;;;;;;;12.71;74.66;99806.13;5105789;27;40965;-81
2021/09/01 04:18:31;;;;;;;1.87;1.00;;;;;;;12.83;74.67;99816.91;5099027;28;42119;-81
2021/09/01 04:20:59;;;;;;;3.90;1.47;;;;;;;12.80;74.62;99800.28;5129780;27;41140;-81
2021/09/01 04:23:26;;;;;;;1.70;1.20;;;;;;;12.93;74.78;99817.25;5100956;27;40008;-81
2021/09/01 04:25:54;;;;;;;1.67;1.20;;;;;;;12.96;74.74;99811.75;5139053;27;41620;-81
2021/09/01 04:28:22;;;;;;;1.67;1.07;;;;;;;12.90;74.68;99806.78;5108623;27;41838;-80
2021/09/01 04:30:49;;;;;;;1.13;1.03;;;;;;;12.71;74.47;99774.22;5124633;27;43349;-82
2021/09/01 04:33:17;;;;;;;1.57;1.30;;;;;;;12.98;74.86;99815.19;5094223;27;39288;-81
2021/09/01 04:35:46;;;;;;;1.10;1.00;;;;;;;12.79;74.63;99787.91;5101249;28;40773;-82
2021/09/01 04:38:14;;;;;;;1.30;1.17;;;;;;;12.90;74.45;99806.78;5126476;27;43896;-82
2021/09/01 04:40:41;;;;;;;1.40;1.30;;;;;;;12.97;74.45;99812.63;5131034;27;42496;-82
2021/09/01 04:43:09;;;;;;;1.33;1.10;;;;;;;13.01;74.49;99817.66;5140442;27;40005;-82
2021/09/01 04:45:37;;;;;;;0.80;0.80;;;;;;;12.84;74.30;99791.19;5131859;27;41678;-81
2021/09/01 04:48:05;;;;;;;1.53;1.10;;;;;;;13.03;74.02;99814.91;5130655;27;42865;-81
2021/09/01 04:50:33;;;;;;;1.20;1.07;;;;;;;12.98;74.03;99804.56;5142898;27;42247;-79
2021/09/01 04:53:02;;;;;;;1.43;1.13;;;;;;;13.04;74.08;99817.50;5133182;27;40317;-80
2021/09/01 04:55:29;;;;;;;1.50;1.10;;;;;;;13.02;73.94;99814.06;5113561;27;40965;-81
2021/09/01 04:57:57;;;;;;;1.60;0.93;;;;;;;12.90;74.02;99810.28;5102567;28;42157;-81
2021/09/01 05:00:24;;;;;;;1.17;0.97;;;;;;;12.98;74.23;99828.50;5129658;27;43373;-82
2021/09/01 05:02:52;;;;;;;1.43;1.03;;;;;;;12.97;74.17;99832.09;5098870;28;39655;-82
2021/09/01 05:05:20;;;;;;;0.93;0.90;;;;;;;12.95;74.19;99826.84;5128559;27;41655;-82
2021/09/01 05:07:47;;;;;;;1.90;1.40;;;;;;;12.92;73.97;99826.16;5107256;27;43160;-82
2021/09/01 05:10:16;;;;;;;1.60;1.07;;;;;;;12.93;74.47;99822.56;5100398;28;42110;-82
2021/09/01 05:12:48;;;;;;;1.20;0.93;;;;;;;12.88;74.53;99819.28;5110249;27;40184;-82
2021/09/01 05:15:17;;;;;;;1.47;1.20;;;;;;;12.98;74.52;99835.59;5097981;27;42054;-82
2021/09/01 05:17:45;;;;;;;1.53;1.37;;;;;;;13.01;74.51;99840.72;5117593;27;43238;-81
2021/09/01 05:20:14;;;;;;;1.83;1.30;;;;;;;12.89;74.46;99818.34;5104152;27;41550;-78
2021/09/01 05:22:46;;;;;;;1.37;1.23;;;;;;;12.99;74.29;99830.19;5105031;27;39178;-81
2021/09/01 05:25:15;;;;;;;1.37;1.27;;;;;;;13.08;74.17;99835.00;5114185;27;41975;-83
2021/09/01 05:27:45;;;;;;;1.43;1.17;;;;;;;13.23;73.92;99847.41;5096761;27;43277;-78
2021/09/01 05:30:18;;;;;;;1.63;1.27;;;;;;;13.36;73.93;99846.72;5118179;27;42297;-85
2021/09/01 05:32:49;;;;;;;1.33;1.20;;;;;;;13.45;73.90;99846.19;5087322;27;38808;-83
2021/09/01 05:35:16;;;;;;;1.50;1.33;;;;;;;13.53;73.82;99849.25;5112778;27;42883;-81
2021/09/01 05:37:46;;;;;;;3.37;1.43;;;;;;;13.63;73.60;99850.44;5100161;28;43085;-82
2021/09/01 05:54:10;;;;;;;2.33;2.10;;;;;;;14.22;72.75;99848.63;5138587;27;43261;-84
2021/09/01 05:56:40;;;;;;;1.40;1.13;;;;;;;14.34;72.92;99867.38;5137517;27;38978;-87
2021/09/01 05:59:10;;;;;;;2.23;1.47;;;;;;;14.34;73.00;99856.72;5132181;27;40707;-85
2021/09/01 06:01:45;;;;;;;1.87;1.70;;;;;;;14.53;72.71;99869.78;5146412;27;42988;-84
2021/09/01 06:04:15;;;;;;;1.87;1.57;;;;;;;14.65;72.67;99841.50;5146632;27;42331;-85
2021/09/01 06:06:49;;;;;;;1.47;1.37;;;;;;;15.18;71.36;99862.06;5150899;27;40416;-82
2021/09/01 06:09:18;;;;;;;1.57;1.43;;;;;;;15.40;70.53;99857.03;5138987;27;41485;-91
2021/09/01 06:11:49;;;;;;;1.60;1.50;;;;;;;15.46;70.09;99831.72;5145691;27;42021;-84
2021/09/01 06:14:34;;;;;;;1.50;1.23;;;;;;;15.74;69.90;99846.75;5137674;27;40917;-77
2021/09/01 06:17:02;;;;;;;1.70;1.30;;;;;;;16.02;69.35;99857.28;5171642;27;40971;-80
2021/09/01 06:19:30;;;;;;;1.40;1.30;;;;;;;16.27;69.44;99847.56;5139835;27;40458;-79
2021/09/01 06:22:00;;;;;;;2.13;1.93;;;;;;;16.65;68.56;99848.41;5139561;27;42202;-80
2021/09/01 06:25:04;;;;;;;1.93;1.73;;;;;;;16.93;68.10;99870.50;5116630;27;41496;-79
2021/09/01 06:27:41;;;;;;;2.70;1.60;;;;;;;16.67;68.82;99867.88;5101467;27;40243;-79
2021/09/01 06:30:09;;;;;;;1.40;1.30;;;;;;;16.61;69.08;99870.09;5113067;27;41324;-84
2021/09/01 06:32:39;;;;;;;1.73;1.60;;;;;;;16.50;69.49;99860.16;5115715;27;42363;-81
2021/09/01 06:35:07;;;;;;;2.33;1.50;;;;;;;16.58;69.54;99864.94;5077536;27;41887;-82
2021/09/01 06:37:37;;;;;;;2.07;1.80;;;;;;;16.69;70.17;99862.44;5119472;27;40237;-85
2021/09/01 06:40:06;;;;;;;3.07;1.67;;;;;;;16.66;70.14;99850.13;5094158;27;41037;-82
2021/09/01 06:42:34;;;;;;;1.97;1.77;;;;;;;16.73;70.50;99843.34;5109250;27;41735;-80
2021/09/01 06:45:02;;;;;;;2.00;1.80;;;;;;;16.87;70.36;99869.13;5113953;27;41122;-80
2021/09/01 06:47:38;;;;;;;2.20;1.43;;;;;;;16.93;70.07;99881.22;5111046;27;39004;-79
2021/09/01 06:50:07;;;;;;;3.07;1.77;;;;;;;16.70;70.07;99830.19;5125824;27;41702;-82
2021/09/01 06:52:36;;;;;;;1.60;1.50;;;;;;;17.05;70.05;99880.31;5109238;27;42638;-79
2021/09/01 06:55:05;;;;;;;2.27;1.67;;;;;;;17.16;69.70;99880.38;5175107;27;42325;-81
2021/09/01 06:57:33;;;;;;;2.57;1.70;;;;;;;17.13;69.57;99868.06;5148848;27;39846;-87
2021/09/01 07:00:00;;;;;;;2.60;2.13;;;;;;;17.33;69.76;99882.66;5146209;27;41791;-80
2021/09/01 07:02:28;;;;;;;2.83;2.10;;;;;;;17.30;69.98;99866.84;5151744;27;42797;-83
2021/09/01 07:04:55;;;;;;;1.87;1.60;;;;;;;17.51;69.00;99881.31;5173562;27;43266;-85
2021/09/01 07:07:23;;;;;;;1.33;1.23;;;;;;;17.69;68.28;99878.22;5141613;27;39414;-80
2021/09/01 07:09:56;;;;;;;3.60;2.00;;;;;;;17.97;67.61;99901.09;5155394;27;41222;-83
2021/09/01 07:12:29;;;;;;;2.90;1.90;;;;;;;18.05;67.67;99886.13;5158021;27;41645;-81
2021/09/01 07:14:56;;;;;;;2.77;2.37;;;;;;;18.45;67.09;99897.31;5137996;27;42680;-86
2021/09/01 07:17:24;;;;;;;3.43;2.23;;;;;;;18.63;66.24;99860.19;5140853;27;39947;-78
2021/09/01 07:19:51;;;;;;;1.93;1.73;;;;;;;19.43;65.85;99892.97;5140398;27;40738;-83
2021/09/01 07:22:19;;;;;;;1.50;1.40;;;;;;;19.99;64.34;99911.63;5159807;27;41802;-81
2021/09/01 07:24:47;;;;;;;2.53;1.67;;;;;;;20.23;63.49;99920.28;5162223;27;41549;-83
2021/09/01 07:27:16;;;;;;;2.13;1.80;;;;;;;20.34;63.10;99911.28;5141107;27;38309;-83
2021/09/01 07:29:43;;;;;;;2.30;1.70;;;;;;;20.47;63.96;99913.81;5175001;27;41678;-79
2021/09/01 07:32:11;;;;;;;2.37;2.10;;;;;;;20.55;64.11;99908.59;5138948;27;41754;-82
2021/09/01 07:34:39;;;;;;;2.43;1.87;;;;;;;20.61;62.46;99908.09;5152152;27;42608;-83
2021/09/01 07:37:08;;;;;;;1.83;1.63;;;;;;;20.58;63.29;99876.06;5156933;27;40168;-82
2021/09/01 07:39:36;;;;;;;2.23;1.43;;;;;;;20.83;62.79;99902.53;5174241;27;41813;-81
2021/09/01 07:42:16;;;;;;;3.10;2.40;;;;;;;20.82;62.02;99887.34;5146630;27;42472;-80
2021/09/01 07:44:45;;;;;;;2.53;2.20;;;;;;;21.06;61.21;99874.38;5155625;27;42468;-82
2021/09/01 07:47:15;;;;;;;2.30;2.10;;;;;;;21.88;59.26;99920.78;5168732;27;40123;-83
2021/09/01 07:49:57;;;;;;;1.77;1.60;;;;;;;22.24;58.71;99931.88;5145836;27;41030;-82
2021/09/01 07:52:31;;;;;;;2.03;1.83;;;;;;;22.58;58.46;99927.69;5139856;27;41831;-79
2021/09/01 07:54:59;;;;;;;2.77;2.07;;;;;;;23.48;56.23;99945.13;5163622;27;42944;-80
2021/09/01 07:57:27;;;;;;;1.70;1.60;;;;;;;24.24;54.23;99945.56;5142352;27;40015;-89
2021/09/01 07:59:56;;;;;;;2.73;2.00;;;;;;;24.86;52.14;99965.31;5173794;27;42006;-82
2021/09/01 08:02:24;;;;;;;2.10;1.83;;;;;;;24.92;51.62;99951.13;5144838;27;42484;-88
2021/09/01 08:05:23;;;;;;;2.80;2.03;;;;;;;25.36;50.66;99970.88;5152496;27;41465;-80
2021/09/01 08:07:50;;;;;;;2.50;2.07;;;;;;;25.54;49.58;99962.63;5137518;27;39590;-87
2021/09/01 08:13:53;;;;;;;2.57;1.90;;;;;;;26.59;48.70;99991.84;5147516;27;42440;-84
2021/09/01 08:16:22;;;;;;;2.10;1.90;;;;;;;26.99;46.89;99985.53;5130237;27;42514;-79
2021/09/01 08:19:30;;;;;;;2.70;2.30;;;;;;;27.44;46.56;99996.63;5151444;27;40065;-85
2021/09/01 08:21:58;;;;;;;2.10;1.90;;;;;;;27.79;45.05;99997.16;5123654;27;41816;-83
2021/09/01 08:24:33;;;;;;;2.50;2.30;;;;;;;27.86;43.23;100014.47;5127687;27;42877;-79
2021/09/01 08:27:00;;;;;;;2.40;2.20;;;;;;;28.39;42.96;100020.97;5132650;27;42032;-80
2021/09/01 08:29:28;;;;;;;2.43;2.23;;;;;;;28.67;41.46;100034.88;5133309;27;39248;-81
2021/09/01 08:31:57;;;;;;;7.53;5.93;;;;;;;29.39;40.53;100043.44;5104253;27;40866;-82
2021/09/01 08:34:25;;;;;;;3.87;3.43;;;;;;;30.62;38.66;100045.16;5138870;27;42832;-81
2021/09/01 08:36:52;;;;;;;2.73;2.30;;;;;;;31.23;36.56;100063.78;5115777;27;41892;-79
2021/09/01 08:39:20;;;;;;;2.70;2.17;;;;;;;31.18;36.35;100052.56;5133957;27;40802;-82
2021/09/01 08:41:49;;;;;;;3.57;2.40;;;;;;;31.21;36.71;100054.91;5123385;27;41780;-80
2021/09/01 08:44:16;;;;;;;3.03;2.40;;;;;;;31.25;37.09;100028.84;5149928;27;43923;-78
2021/09/01 08:46:48;;;;;;;2.17;1.97;;;;;;;31.17;36.28;100026.25;5134303;27;41354;-85
2021/09/01 08:49:20;;;;;;;2.80;2.20;;;;;;;31.15;36.47;100034.69;5137436;27;40845;-89
2021/09/01 08:51:48;;;;;;;2.23;2.03;;;;;;;30.89;36.93;100029.81;5137720;27;40934;-87
2021/09/01 08:54:16;;;;;;;2.20;2.00;;;;;;;30.24;37.13;100030.88;5137700;27;41857;-86
2021/09/01 08:56:44;;;;;;;1.93;1.77;;;;;;;29.63;37.85;100016.66;5161273;27;42502;-88
2021/09/01 08:59:12;;;;;;;1.70;1.50;;;;;;;29.02;39.02;100012.41;5154664;27;38822;-85
2021/09/01 09:01:42;;;;;;;1.77;1.67;;;;;;;28.59;39.77;100009.38;5142894;27;41923;-84
2021/09/01 09:04:18;;;;;;;1.80;1.60;;;;;;;28.75;40.14;100000.19;5159518;27;42157;-88
2021/09/01 09:06:48;;;;;;;1.87;1.73;;;;;;;28.77;40.07;100025.41;5135168;27;41643;-84
2021/09/01 09:09:19;;;;;;;2.03;1.87;;;;;;;28.98;39.32;100022.00;5150437;27;38975;-82
2021/09/01 09:11:47;;;;;;;1.70;1.60;;;;;;;29.02;40.54;100011.56;5134692;27;40944;-84
2021/09/01 09:14:21;;;;;;;2.40;2.10;;;;;;;28.69;41.26;100009.09;5134470;27;43171;-84
2021/09/01 09:17:01;;;;;;;1.90;1.70;;;;;;;28.21;40.77;99989.41;5137428;27;41232;-81
2021/09/01 09:19:54;;;;;;;2.10;1.87;;;;;;;27.86;41.66;99990.81;5148544;27;39835;-80
2021/09/01 09:22:25;;;;;;;1.53;1.43;;;;;;;27.58;42.42;99983.28;5131284;27;40732;-82
2021/09/01 09:25:14;;;;;;;1.70;1.57;;;;;;;27.35;42.44;99977.75;5170417;27;42817;-83
2021/09/01 09:27:50;;;;;;;1.60;1.50;;;;;;;27.90;42.29;99991.31;5137022;27;42832;-83
2021/09/01 09:30:26;;;;;;;2.00;1.70;;;;;;;28.84;40.55;99996.38;5137338;27;39827;-83
2021/09/01 09:32:55;;;;;;;1.83;1.60;;;;;;;29.15;40.33;100001.69;5153853;27;40778;-82
2021/09/01 09:35:25;;;;;;;2.30;1.87;;;;;;;29.40;38.81;99994.09;5136763;27;41686;-84
2021/09/01 09:38:05;;;;;;;2.33;2.13;;;;;;;29.22;38.20;100018.16;5137139;27;41135;-86
2021/09/01 09:40:34;;;;;;;2.30;1.80;;;;;;;28.69;39.88;100010.97;5137051;27;39795;-83
2021/09/01 09:43:16;;;;;;;1.73;1.60;;;;;;;28.10;40.51;99994.41;5154203;27;40704;-80
2021/09/01 09:45:45;;;;;;;2.47;1.40;;;;;;;27.84;41.52;99995.56;5146579;27;41996;-86
2021/09/01 09:48:13;;;;;;;1.97;1.57;;;;;;;27.71;42.63;99983.56;5153415;27;42895;-86
2021/09/01 09:50:48;;;;;;;3.07;1.90;;;;;;;27.72;41.62;100004.31;5150014;27;38996;-83
2021/09/01 09:53:30;;;;;;;2.40;1.50;;;;;;;27.61;42.23;99963.91;5138611;27;40955;-79
2021/09/01 09:56:06;;;;;;;1.40;1.30;;;;;;;27.77;40.06;99996.47;5156032;27;42981;-84
2021/09/01 09:58:37;;;;;;;1.93;1.73;;;;;;;27.80;39.67;100001.59;5155017;27;41253;-83
2021/09/01 10:01:06;;;;;;;1.67;1.57;;;;;;;27.81;39.78;100011.44;5152623;27;40568;-85
2021/09/01 10:03:44;;;;;;;1.70;1.60;;;;;;;27.84;39.64;99994.72;5165848;27;42169;-87
2021/09/01 10:06:16;;;;;;;2.60;1.50;;;;;;;28.03;38.97;99993.44;5134473;27;42725;-87
2021/09/01 10:08:46;;;;;;;1.50;1.40;;;;;;;28.36;39.33;100005.81;5135600;27;41545;-85
2021/09/01 10:11:15;;;;;;;1.63;1.53;;;;;;;28.36;38.53;100008.53;5188391;27;40157;-82
2021/09/01 10:13:45;;;;;;;1.53;1.30;;;;;;;28.15;38.73;100006.47;5160490;27;40992;-86
2021/09/01 10:16:27;;;;;;;1.70;1.60;;;;;;;28.22;38.27;99996.56;5165025;27;44380;-87
2021/09/01 10:18:59;;;;;;;2.27;1.60;;;;;;;28.37;37.91;100012.97;5152183;27;41313;-90
2021/09/01 10:21:30;;;;;;;2.30;1.50;;;;;;;28.18;36.87;100021.63;5157213;27;40961;-88
2021/09/01 10:23:58;;;;;;;1.43;1.33;;;;;;;28.01;38.68;99996.34;5140168;27;40764;-84
2021/09/01 10:26:29;;;;;;;1.90;1.80;;;;;;;28.45;38.66;99988.38;5169263;27;41839;-86
2021/09/01 10:28:58;;;;;;;2.53;1.80;;;;;;;29.08;37.51;100005.34;5141017;27;42141;-86
2021/09/01 10:31:30;;;;;;;1.73;1.60;;;;;;;29.41;35.94;99989.50;5139024;27;39276;-88
2021/09/01 10:34:02;;;;;;;1.57;1.30;;;;;;;30.03;34.91;100009.00;5128019;27;40715;-89
2021/09/01 10:36:52;;;;;;;2.00;1.80;;;;;;;31.82;32.98;100008.50;5139292;27;42215;-84
2021/09/01 10:39:46;;;;;;;1.80;1.70;;;;;;;31.69;32.51;100025.72;5124804;27;41533;-83
2021/09/01 10:42:37;;;;;;;1.70;1.60;;;;;;;30.68;32.62;100027.94;5167391;27;40011;-84
2021/09/01 10:45:08;;;;;;;1.80;1.70;;;;;;;30.62;32.87;100033.38;5143302;27;40679;-86
2021/09/01 10:48:15;;;;;;;1.70;1.60;;;;;;;31.77;31.80;100031.88;5139768;27;42096;-86
2021/09/01 10:50:45;;;;;;;1.60;1.50;;;;;;;32.74;31.64;100023.31;5139837;27;41309;-84
2021/09/01 10:53:18;;;;;;;6.40;2.07;;;;;;;33.22;31.21;100019.47;5152071;27;38697;-80
2021/09/01 10:56:01;;;;;;;1.57;1.47;;;;;;;33.43;28.48;100035.69;5164882;27;42524;-84
2021/09/01 10:58:34;;;;;;;2.37;1.87;;;;;;;33.57;29.16;100039.25;5136453;27;41786;-85
2021/09/01 11:01:22;;;;;;;1.57;1.47;;;;;;;33.75;29.68;100003.69;5174155;27;42903;-84
2021/09/01 11:04:22;;;;;;;1.63;1.50;;;;;;;33.51;29.78;100035.44;5137367;27;39486;-85
2021/09/01 11:06:51;;;;;;;1.90;1.60;;;;;;;32.77;30.36;100009.16;5139221;27;41015;-82
2021/09/01 11:09:22;;;;;;;1.30;1.20;;;;;;;32.13;30.83;100000.59;5139947;27;41788;-83
2021/09/01 11:11:52;;;;;;;16.30;10.60;;;;;;;31.83;30.62;100024.75;5144496;27;42049;-83
2021/09/01 11:14:37;;;;;;;3.17;2.57;;;;;;;32.30;30.81;100012.88;5141729;27;39839;-87
2021/09/01 11:17:12;;;;;;;2.47;1.90;;;;;;;32.90;29.92;100012.94;5139189;27;41022;-85
2021/09/01 11:19:41;;;;;;;2.00;1.50;;;;;;;33.08;29.64;100021.38;5139896;27;43007;-82
2021/09/01 11:22:12;;;;;;;2.20;2.00;;;;;;;32.64;29.55;100014.59;5147340;27;42334;-85
2021/09/01 11:24:47;;;;;;;2.13;1.90;;;;;;;32.55;29.83;100001.31;5140662;27;39015;-83
2021/09/01 11:27:17;;;;;;;1.60;1.50;;;;;;;32.01;31.40;99994.03;5138343;27;40856;-83
2021/09/01 11:29:44;;;;;;;2.17;2.00;;;;;;;31.27;31.38;99999.38;5155664;27;42940;-84
2021/09/01 11:32:17;;;;;;;1.57;1.20;;;;;;;30.61;33.73;99979.72;5138742;27;41246;-87
2021/09/01 11:34:45;;;;;;;1.50;1.40;;;;;;;30.24;34.44;99980.81;5139016;27;38989;-86
2021/09/01 11:37:14;;;;;;;2.20;1.80;;;;;;;31.54;34.19;99957.38;5155975;27;41133;-82
2021/09/01 11:39:45;;;;;;;1.47;1.37;;;;;;;34.14;30.45;99977.91;5156368;27;42826;-84
2021/09/01 11:42:14;;;;;;;1.63;1.53;;;;;;;35.02;28.08;100014.50;5148391;27;41130;-85
2021/09/01 11:44:42;;;;;;;1.60;1.50;;;;;;;35.25;28.89;100008.34;5138777;27;39518;-82
2021/09/01 11:47:11;;;;;;;1.97;1.87;;;;;;;36.51;27.58;100015.88;5134280;27;42277;-83
2021/09/01 11:49:39;;;;;;;2.07;1.90;;;;;;;37.29;25.70;100016.47;5142991;27;42171;-82
2021/09/01 11:52:07;;;;;;;1.40;1.30;;;;;;;36.63;26.25;100028.63;5144139;27;42521;-92
2021/09/01 11:54:40;;;;;;;2.00;1.90;;;;;;;35.34;26.59;100017.19;5136248;27;39166;-87
2021/09/01 11:57:09;;;;;;;1.53;1.43;;;;;;;34.22;28.58;99999.66;5144896;27;41575;-84
2021/09/01 11:59:37;;;;;;;2.00;1.80;;;;;;;33.26;29.11;99985.06;5160345;27;42932;-81
2021/09/01 12:02:08;;;;;;;1.83;1.53;;;;;;;32.39;30.31;99989.69;5143493;27;41774;-85
2021/09/01 12:04:41;;;;;;;2.00;1.80;;;;;;;31.51;32.58;99956.94;5135980;27;41237;-80